sensor_id;sensor_type;location;lat;lon;timestamp;P1;durP1;ratioP1;P2;durP2;ratioP2
16246;SDS011;8231;50.866;7.944;2022-11-06T00:00:31;8.82;;;6.60;;
16246;SDS011;8231;50.866;7.944;2022-11-06T00:03:00;8.40;;;7.28;;
16246;SDS011;8231;50.866;7.944;2022-11-06T00:05:28;10.43;;;8.05;;
16246;SDS011;8231;50.866;7.944;2022-11-06T00:08:14;13.07;;;7.00;;
16246;SDS011;8231;50.866;7.944;2022-11-06T00:10:52;10.73;;;6.60;;
16246;SDS011;8231;50.866;7.944;2022-11-06T00:13:21;8.55;;;6.47;;
16246;SDS011;8231;50.866;7.944;2022-11-06T00:15:49;9.27;;;6.22;;
16246;SDS011;8231;50.866;7.944;2022-11-06T00:18:17;7.28;;;6.57;;
16246;SDS011;8231;50.866;7.944;2022-11-06T00:20:45;9.10;;;6.00;;
16246;SDS011;8231;50.866;7.944;2022-11-06T00:23:13;12.70;;;7.10;;
16246;SDS011;8231;50.866;7.944;2022-11-06T00:25:41;9.63;;;6.85;;
16246;SDS011;8231;50.866;7.944;2022-11-06T00:28:09;10.32;;;7.32;;
16246;SDS011;8231;50.866;7.944;2022-11-06T00:30:39;9.52;;;6.63;;
16246;SDS011;8231;50.866;7.944;2022-11-06T00:33:07;12.00;;;8.32;;
16246;SDS011;8231;50.866;7.944;2022-11-06T00:35:36;7.45;;;6.45;;
16246;SDS011;8231;50.866;7.944;2022-11-06T00:38:04;10.13;;;7.40;;
16246;SDS011;8231;50.866;7.944;2022-11-06T00:40:33;17.17;;;7.72;;
16246;SDS011;8231;50.866;7.944;2022-11-06T00:43:01;14.98;;;7.82;;
16246;SDS011;8231;50.866;7.944;2022-11-06T00:45:29;12.43;;;7.57;;
16246;SDS011;8231;50.866;7.944;2022-11-06T00:47:59;14.90;;;7.90;;
16246;SDS011;8231;50.866;7.944;2022-11-06T00:50:27;10.23;;;6.82;;
16246;SDS011;8231;50.866;7.944;2022-11-06T00:52:55;11.73;;;7.40;;
16246;SDS011;8231;50.866;7.944;2022-11-06T00:55:23;9.02;;;6.95;;
16246;SDS011;8231;50.866;7.944;2022-11-06T00:57:51;9.57;;;7.60;;
16246;SDS011;8231;50.866;7.944;2022-11-06T01:00:19;10.63;;;7.30;;
16246;SDS011;8231;50.866;7.944;2022-11-06T01:02:48;8.77;;;6.10;;
16246;SDS011;8231;50.866;7.944;2022-11-06T01:05:17;8.68;;;6.15;;
16246;SDS011;8231;50.866;7.944;2022-11-06T01:07:46;14.38;;;7.25;;
16246;SDS011;8231;50.866;7.944;2022-11-06T01:10:14;10.93;;;5.95;;
16246;SDS011;8231;50.866;7.944;2022-11-06T01:12:42;10.25;;;6.43;;
16246;SDS011;8231;50.866;7.944;2022-11-06T01:15:10;8.68;;;6.38;;
16246;SDS011;8231;50.866;7.944;2022-11-06T01:17:38;11.25;;;6.78;;
16246;SDS011;8231;50.866;7.944;2022-11-06T01:20:07;9.52;;;6.90;;
16246;SDS011;8231;50.866;7.944;2022-11-06T01:22:37;12.30;;;6.28;;
16246;SDS011;8231;50.866;7.944;2022-11-06T01:25:05;9.60;;;6.30;;
16246;SDS011;8231;50.866;7.944;2022-11-06T01:27:34;8.93;;;6.22;;
16246;SDS011;8231;50.866;7.944;2022-11-06T01:30:03;9.48;;;5.88;;
16246;SDS011;8231;50.866;7.944;2022-11-06T01:32:33;13.80;;;5.90;;
16246;SDS011;8231;50.866;7.944;2022-11-06T01:35:01;8.90;;;5.82;;
16246;SDS011;8231;50.866;7.944;2022-11-06T01:37:29;8.25;;;5.80;;
16246;SDS011;8231;50.866;7.944;2022-11-06T01:39:58;7.63;;;5.93;;
16246;SDS011;8231;50.866;7.944;2022-11-06T01:42:27;10.90;;;6.78;;
16246;SDS011;8231;50.866;7.944;2022-11-06T01:47:47;11.48;;;6.80;;
16246;SDS011;8231;50.866;7.944;2022-11-06T01:50:15;9.35;;;5.75;;
16246;SDS011;8231;50.866;7.944;2022-11-06T01:52:44;8.02;;;5.05;;
16246;SDS011;8231;50.866;7.944;2022-11-06T01:55:18;8.25;;;5.20;;
16246;SDS011;8231;50.866;7.944;2022-11-06T01:57:50;8.23;;;6.10;;
16246;SDS011;8231;50.866;7.944;2022-11-06T02:00:19;8.43;;;6.00;;
16246;SDS011;8231;50.866;7.944;2022-11-06T02:02:47;8.77;;;5.40;;
16246;SDS011;8231;50.866;7.944;2022-11-06T02:05:16;9.55;;;6.18;;
16246;SDS011;8231;50.866;7.944;2022-11-06T02:07:44;7.20;;;5.82;;
16246;SDS011;8231;50.866;7.944;2022-11-06T02:10:13;10.27;;;6.72;;
16246;SDS011;8231;50.866;7.944;2022-11-06T02:12:46;9.80;;;6.28;;
16246;SDS011;8231;50.866;7.944;2022-11-06T02:15:24;11.63;;;6.57;;
16246;SDS011;8231;50.866;7.944;2022-11-06T02:18:09;8.32;;;6.18;;
16246;SDS011;8231;50.866;7.944;2022-11-06T02:20:52;10.48;;;6.47;;
16246;SDS011;8231;50.866;7.944;2022-11-06T02:23:48;10.25;;;6.80;;
16246;SDS011;8231;50.866;7.944;2022-11-06T02:29:50;7.13;;;4.90;;
16246;SDS011;8231;50.866;7.944;2022-11-06T02:32:26;8.18;;;5.43;;
16246;SDS011;8231;50.866;7.944;2022-11-06T02:34:59;7.97;;;5.25;;
16246;SDS011;8231;50.866;7.944;2022-11-06T02:37:35;11.13;;;5.00;;
16246;SDS011;8231;50.866;7.944;2022-11-06T02:40:06;12.48;;;6.05;;
16246;SDS011;8231;50.866;7.944;2022-11-06T02:42:36;14.10;;;6.53;;
16246;SDS011;8231;50.866;7.944;2022-11-06T02:45:10;6.68;;;4.90;;
16246;SDS011;8231;50.866;7.944;2022-11-06T02:47:40;7.32;;;5.00;;
16246;SDS011;8231;50.866;7.944;2022-11-06T02:50:11;8.02;;;5.72;;
16246;SDS011;8231;50.866;7.944;2022-11-06T02:52:44;7.00;;;5.53;;
16246;SDS011;8231;50.866;7.944;2022-11-06T02:55:17;8.02;;;5.75;;
16246;SDS011;8231;50.866;7.944;2022-11-06T02:57:51;10.75;;;5.97;;
16246;SDS011;8231;50.866;7.944;2022-11-06T03:00:22;10.85;;;5.93;;
16246;SDS011;8231;50.866;7.944;2022-11-06T03:02:54;9.88;;;5.88;;
16246;SDS011;8231;50.866;7.944;2022-11-06T03:05:26;13.02;;;6.55;;
16246;SDS011;8231;50.866;7.944;2022-11-06T03:08:00;10.73;;;7.55;;
16246;SDS011;8231;50.866;7.944;2022-11-06T03:10:36;9.25;;;6.55;;
16246;SDS011;8231;50.866;7.944;2022-11-06T03:13:11;8.48;;;6.57;;
16246;SDS011;8231;50.866;7.944;2022-11-06T03:15:47;6.93;;;5.95;;
16246;SDS011;8231;50.866;7.944;2022-11-06T03:18:26;10.75;;;6.13;;
16246;SDS011;8231;50.866;7.944;2022-11-06T03:21:02;9.95;;;6.05;;
16246;SDS011;8231;50.866;7.944;2022-11-06T03:23:34;10.43;;;6.80;;
16246;SDS011;8231;50.866;7.944;2022-11-06T03:26:11;8.85;;;5.28;;
16246;SDS011;8231;50.866;7.944;2022-11-06T03:28:43;6.10;;;5.22;;
16246;SDS011;8231;50.866;7.944;2022-11-06T03:31:20;8.70;;;5.18;;
16246;SDS011;8231;50.866;7.944;2022-11-06T03:33:56;12.02;;;4.93;;
16246;SDS011;8231;50.866;7.944;2022-11-06T03:36:29;9.55;;;5.90;;
16246;SDS011;8231;50.866;7.944;2022-11-06T03:39:00;12.40;;;4.72;;
16246;SDS011;8231;50.866;7.944;2022-11-06T03:41:31;10.55;;;6.70;;
16246;SDS011;8231;50.866;7.944;2022-11-06T03:44:04;10.15;;;7.10;;
16246;SDS011;8231;50.866;7.944;2022-11-06T03:46:37;8.23;;;6.88;;
16246;SDS011;8231;50.866;7.944;2022-11-06T03:49:11;10.32;;;6.20;;
16246;SDS011;8231;50.866;7.944;2022-11-06T03:51:44;8.98;;;5.32;;
16246;SDS011;8231;50.866;7.944;2022-11-06T03:54:16;10.00;;;5.40;;
16246;SDS011;8231;50.866;7.944;2022-11-06T03:56:49;9.02;;;3.35;;
16246;SDS011;8231;50.866;7.944;2022-11-06T03:59:22;4.63;;;3.58;;
16246;SDS011;8231;50.866;7.944;2022-11-06T04:01:55;5.78;;;3.88;;
16246;SDS011;8231;50.866;7.944;2022-11-06T04:04:26;7.38;;;3.10;;
16246;SDS011;8231;50.866;7.944;2022-11-06T04:06:59;8.40;;;3.78;;
16246;SDS011;8231;50.866;7.944;2022-11-06T04:09:32;4.50;;;3.28;;
16246;SDS011;8231;50.866;7.944;2022-11-06T04:12:19;7.32;;;3.22;;
16246;SDS011;8231;50.866;7.944;2022-11-06T04:15:09;5.60;;;3.25;;
16246;SDS011;8231;50.866;7.944;2022-11-06T04:17:42;6.93;;;3.55;;
16246;SDS011;8231;50.866;7.944;2022-11-06T04:20:11;8.27;;;4.65;;
16246;SDS011;8231;50.866;7.944;2022-11-06T04:23:05;3.90;;;2.92;;
16246;SDS011;8231;50.866;7.944;2022-11-06T04:25:43;7.25;;;3.53;;
16246;SDS011;8231;50.866;7.944;2022-11-06T04:28:39;4.57;;;3.10;;
16246;SDS011;8231;50.866;7.944;2022-11-06T04:31:14;6.85;;;3.70;;
16246;SDS011;8231;50.866;7.944;2022-11-06T04:33:56;6.93;;;4.00;;
16246;SDS011;8231;50.866;7.944;2022-11-06T04:36:28;9.27;;;5.10;;
16246;SDS011;8231;50.866;7.944;2022-11-06T04:39:05;10.73;;;4.82;;
16246;SDS011;8231;50.866;7.944;2022-11-06T04:41:41;9.77;;;4.88;;
16246;SDS011;8231;50.866;7.944;2022-11-06T04:44:18;10.00;;;5.32;;
16246;SDS011;8231;50.866;7.944;2022-11-06T04:46:54;9.65;;;5.22;;
16246;SDS011;8231;50.866;7.944;2022-11-06T04:49:27;7.90;;;4.70;;
16246;SDS011;8231;50.866;7.944;2022-11-06T04:52:00;6.82;;;4.72;;
16246;SDS011;8231;50.866;7.944;2022-11-06T04:54:30;7.15;;;5.55;;
16246;SDS011;8231;50.866;7.944;2022-11-06T04:56:59;7.25;;;5.68;;
16246;SDS011;8231;50.866;7.944;2022-11-06T04:59:28;10.93;;;6.90;;
16246;SDS011;8231;50.866;7.944;2022-11-06T05:01:59;11.80;;;6.78;;
16246;SDS011;8231;50.866;7.944;2022-11-06T05:04:28;12.38;;;7.45;;
16246;SDS011;8231;50.866;7.944;2022-11-06T05:06:58;8.52;;;6.38;;
16246;SDS011;8231;50.866;7.944;2022-11-06T05:09:26;8.50;;;6.85;;
16246;SDS011;8231;50.866;7.944;2022-11-06T05:11:54;9.15;;;6.07;;
16246;SDS011;8231;50.866;7.944;2022-11-06T05:14:22;8.38;;;6.65;;
16246;SDS011;8231;50.866;7.944;2022-11-06T05:16:51;9.77;;;6.55;;
16246;SDS011;8231;50.866;7.944;2022-11-06T05:19:19;13.05;;;6.93;;
16246;SDS011;8231;50.866;7.944;2022-11-06T05:21:48;11.40;;;6.60;;
16246;SDS011;8231;50.866;7.944;2022-11-06T05:24:33;7.38;;;5.95;;
16246;SDS011;8231;50.866;7.944;2022-11-06T05:27:02;9.48;;;6.15;;
16246;SDS011;8231;50.866;7.944;2022-11-06T05:29:30;7.10;;;5.20;;
16246;SDS011;8231;50.866;7.944;2022-11-06T05:31:58;9.02;;;6.55;;
16246;SDS011;8231;50.866;7.944;2022-11-06T05:34:26;11.07;;;7.47;;
16246;SDS011;8231;50.866;7.944;2022-11-06T05:36:56;9.52;;;6.70;;
16246;SDS011;8231;50.866;7.944;2022-11-06T05:39:24;10.32;;;6.93;;
16246;SDS011;8231;50.866;7.944;2022-11-06T05:41:52;9.38;;;6.05;;
16246;SDS011;8231;50.866;7.944;2022-11-06T05:44:21;7.85;;;6.90;;
16246;SDS011;8231;50.866;7.944;2022-11-06T05:46:49;8.40;;;5.57;;
16246;SDS011;8231;50.866;7.944;2022-11-06T05:49:17;8.80;;;5.40;;
16246;SDS011;8231;50.866;7.944;2022-11-06T05:51:46;9.75;;;5.82;;
16246;SDS011;8231;50.866;7.944;2022-11-06T05:54:15;8.60;;;5.13;;
16246;SDS011;8231;50.866;7.944;2022-11-06T05:56:44;8.63;;;5.25;;
16246;SDS011;8231;50.866;7.944;2022-11-06T05:59:12;8.07;;;5.45;;
16246;SDS011;8231;50.866;7.944;2022-11-06T06:01:40;5.07;;;3.35;;
16246;SDS011;8231;50.866;7.944;2022-11-06T06:04:08;11.10;;;3.53;;
16246;SDS011;8231;50.866;7.944;2022-11-06T06:06:36;4.25;;;3.20;;
16246;SDS011;8231;50.866;7.944;2022-11-06T06:09:05;7.63;;;3.95;;
16246;SDS011;8231;50.866;7.944;2022-11-06T06:11:35;11.20;;;4.35;;
16246;SDS011;8231;50.866;7.944;2022-11-06T06:14:03;11.60;;;4.47;;
16246;SDS011;8231;50.866;7.944;2022-11-06T06:16:31;6.05;;;4.35;;
16246;SDS011;8231;50.866;7.944;2022-11-06T06:18:59;8.82;;;4.35;;
16246;SDS011;8231;50.866;7.944;2022-11-06T06:21:27;8.27;;;3.70;;
16246;SDS011;8231;50.866;7.944;2022-11-06T06:23:55;9.55;;;3.92;;
16246;SDS011;8231;50.866;7.944;2022-11-06T06:26:23;6.50;;;4.00;;
16246;SDS011;8231;50.866;7.944;2022-11-06T06:28:53;7.50;;;4.00;;
16246;SDS011;8231;50.866;7.944;2022-11-06T06:31:21;8.98;;;4.57;;
16246;SDS011;8231;50.866;7.944;2022-11-06T06:33:49;5.70;;;3.70;;
16246;SDS011;8231;50.866;7.944;2022-11-06T06:36:18;9.55;;;4.50;;
16246;SDS011;8231;50.866;7.944;2022-11-06T06:38:46;5.22;;;3.20;;
16246;SDS011;8231;50.866;7.944;2022-11-06T06:41:14;4.63;;;3.60;;
16246;SDS011;8231;50.866;7.944;2022-11-06T06:43:42;4.32;;;3.25;;
16246;SDS011;8231;50.866;7.944;2022-11-06T06:46:14;6.85;;;3.83;;
16246;SDS011;8231;50.866;7.944;2022-11-06T06:48:43;7.43;;;3.75;;
16246;SDS011;8231;50.866;7.944;2022-11-06T06:51:11;5.80;;;4.15;;
16246;SDS011;8231;50.866;7.944;2022-11-06T06:53:41;8.40;;;4.32;;
16246;SDS011;8231;50.866;7.944;2022-11-06T06:56:10;9.05;;;4.45;;
16246;SDS011;8231;50.866;7.944;2022-11-06T06:58:38;10.07;;;4.72;;
16246;SDS011;8231;50.866;7.944;2022-11-06T07:01:06;5.68;;;4.05;;
16246;SDS011;8231;50.866;7.944;2022-11-06T07:03:37;7.40;;;4.18;;
16246;SDS011;8231;50.866;7.944;2022-11-06T07:06:06;9.88;;;4.07;;
16246;SDS011;8231;50.866;7.944;2022-11-06T07:08:34;9.10;;;4.60;;
16246;SDS011;8231;50.866;7.944;2022-11-06T07:11:03;10.20;;;4.75;;
16246;SDS011;8231;50.866;7.944;2022-11-06T07:13:33;8.45;;;4.07;;
16246;SDS011;8231;50.866;7.944;2022-11-06T07:16:02;10.63;;;4.85;;
16246;SDS011;8231;50.866;7.944;2022-11-06T07:18:31;7.93;;;4.13;;
16246;SDS011;8231;50.866;7.944;2022-11-06T07:21:02;9.77;;;4.32;;
16246;SDS011;8231;50.866;7.944;2022-11-06T07:23:30;6.72;;;4.13;;
16246;SDS011;8231;50.866;7.944;2022-11-06T07:25:59;8.68;;;4.45;;
16246;SDS011;8231;50.866;7.944;2022-11-06T07:28:27;9.00;;;4.65;;
16246;SDS011;8231;50.866;7.944;2022-11-06T07:30:56;7.72;;;4.10;;
16246;SDS011;8231;50.866;7.944;2022-11-06T07:33:26;7.70;;;4.80;;
16246;SDS011;8231;50.866;7.944;2022-11-06T07:35:54;7.18;;;4.80;;
16246;SDS011;8231;50.866;7.944;2022-11-06T07:38:23;5.65;;;4.22;;
16246;SDS011;8231;50.866;7.944;2022-11-06T07:40:51;9.15;;;4.90;;
16246;SDS011;8231;50.866;7.944;2022-11-06T07:43:20;12.10;;;4.75;;
16246;SDS011;8231;50.866;7.944;2022-11-06T07:45:50;10.45;;;5.57;;
16246;SDS011;8231;50.866;7.944;2022-11-06T07:48:18;9.48;;;5.05;;
16246;SDS011;8231;50.866;7.944;2022-11-06T07:50:46;6.07;;;4.53;;
16246;SDS011;8231;50.866;7.944;2022-11-06T07:53:14;7.85;;;5.03;;
16246;SDS011;8231;50.866;7.944;2022-11-06T07:55:47;9.98;;;5.40;;
16246;SDS011;8231;50.866;7.944;2022-11-06T07:58:16;7.90;;;4.35;;
16246;SDS011;8231;50.866;7.944;2022-11-06T08:00:47;6.80;;;3.85;;
16246;SDS011;8231;50.866;7.944;2022-11-06T08:03:17;8.02;;;4.63;;
16246;SDS011;8231;50.866;7.944;2022-11-06T08:05:45;11.45;;;5.15;;
16246;SDS011;8231;50.866;7.944;2022-11-06T08:08:14;11.98;;;4.72;;
16246;SDS011;8231;50.866;7.944;2022-11-06T08:10:42;6.97;;;4.78;;
16246;SDS011;8231;50.866;7.944;2022-11-06T08:13:15;9.35;;;5.03;;
16246;SDS011;8231;50.866;7.944;2022-11-06T08:15:44;9.65;;;4.68;;
16246;SDS011;8231;50.866;7.944;2022-11-06T08:18:12;9.35;;;4.72;;
16246;SDS011;8231;50.866;7.944;2022-11-06T08:20:41;10.10;;;4.00;;
16246;SDS011;8231;50.866;7.944;2022-11-06T08:23:10;9.63;;;4.88;;
16246;SDS011;8231;50.866;7.944;2022-11-06T08:25:39;11.25;;;5.40;;
16246;SDS011;8231;50.866;7.944;2022-11-06T08:28:08;10.38;;;6.05;;
16246;SDS011;8231;50.866;7.944;2022-11-06T08:30:38;9.02;;;5.63;;
16246;SDS011;8231;50.866;7.944;2022-11-06T08:33:06;9.60;;;5.57;;
16246;SDS011;8231;50.866;7.944;2022-11-06T08:35:34;9.10;;;5.00;;
16246;SDS011;8231;50.866;7.944;2022-11-06T08:38:03;7.85;;;4.80;;
16246;SDS011;8231;50.866;7.944;2022-11-06T08:40:31;15.23;;;8.15;;
16246;SDS011;8231;50.866;7.944;2022-11-06T08:43:00;6.13;;;4.57;;
16246;SDS011;8231;50.866;7.944;2022-11-06T08:45:35;8.27;;;5.30;;
16246;SDS011;8231;50.866;7.944;2022-11-06T08:48:06;12.40;;;5.78;;
16246;SDS011;8231;50.866;7.944;2022-11-06T08:50:35;7.10;;;4.75;;
16246;SDS011;8231;50.866;7.944;2022-11-06T08:53:05;8.00;;;4.57;;
16246;SDS011;8231;50.866;7.944;2022-11-06T08:55:34;8.52;;;5.28;;
16246;SDS011;8231;50.866;7.944;2022-11-06T08:58:04;6.63;;;4.30;;
16246;SDS011;8231;50.866;7.944;2022-11-06T09:00:33;6.55;;;4.25;;
16246;SDS011;8231;50.866;7.944;2022-11-06T09:03:04;7.22;;;3.67;;
16246;SDS011;8231;50.866;7.944;2022-11-06T09:05:33;4.50;;;3.83;;
16246;SDS011;8231;50.866;7.944;2022-11-06T09:08:02;9.07;;;4.82;;
16246;SDS011;8231;50.866;7.944;2022-11-06T09:10:30;7.82;;;3.63;;
16246;SDS011;8231;50.866;7.944;2022-11-06T09:12:58;11.10;;;4.07;;
16246;SDS011;8231;50.866;7.944;2022-11-06T09:15:26;5.80;;;3.63;;
16246;SDS011;8231;50.866;7.944;2022-11-06T09:17:54;5.55;;;3.78;;
16246;SDS011;8231;50.866;7.944;2022-11-06T09:20:24;6.75;;;3.63;;
16246;SDS011;8231;50.866;7.944;2022-11-06T09:22:53;9.25;;;3.50;;
16246;SDS011;8231;50.866;7.944;2022-11-06T09:25:26;7.00;;;3.03;;
16246;SDS011;8231;50.866;7.944;2022-11-06T09:27:54;15.45;;;4.32;;
16246;SDS011;8231;50.866;7.944;2022-11-06T09:30:25;6.47;;;3.67;;
16246;SDS011;8231;50.866;7.944;2022-11-06T09:32:55;5.53;;;3.65;;
16246;SDS011;8231;50.866;7.944;2022-11-06T09:35:26;3.67;;;2.60;;
16246;SDS011;8231;50.866;7.944;2022-11-06T09:37:59;7.18;;;2.92;;
16246;SDS011;8231;50.866;7.944;2022-11-06T09:40:29;6.43;;;3.15;;
16246;SDS011;8231;50.866;7.944;2022-11-06T09:43:02;8.60;;;3.58;;
16246;SDS011;8231;50.866;7.944;2022-11-06T09:46:09;8.90;;;3.38;;
16246;SDS011;8231;50.866;7.944;2022-11-06T09:48:46;5.95;;;2.88;;
16246;SDS011;8231;50.866;7.944;2022-11-06T09:51:25;7.00;;;2.78;;
16246;SDS011;8231;50.866;7.944;2022-11-06T09:54:00;4.38;;;3.63;;
16246;SDS011;8231;50.866;7.944;2022-11-06T09:56:33;8.73;;;3.17;;
16246;SDS011;8231;50.866;7.944;2022-11-06T09:59:04;5.03;;;3.13;;
16246;SDS011;8231;50.866;7.944;2022-11-06T10:01:38;4.55;;;2.70;;
16246;SDS011;8231;50.866;7.944;2022-11-06T10:04:13;5.40;;;2.67;;
16246;SDS011;8231;50.866;7.944;2022-11-06T10:06:51;7.22;;;3.00;;
16246;SDS011;8231;50.866;7.944;2022-11-06T10:09:19;5.10;;;2.65;;
16246;SDS011;8231;50.866;7.944;2022-11-06T10:11:49;4.63;;;1.92;;
16246;SDS011;8231;50.866;7.944;2022-11-06T10:14:28;5.97;;;2.30;;
16246;SDS011;8231;50.866;7.944;2022-11-06T10:17:07;4.18;;;2.60;;
16246;SDS011;8231;50.866;7.944;2022-11-06T10:19:43;5.93;;;2.38;;
16246;SDS011;8231;50.866;7.944;2022-11-06T10:22:17;3.28;;;2.20;;
16246;SDS011;8231;50.866;7.944;2022-11-06T10:24:51;6.43;;;2.53;;
16246;SDS011;8231;50.866;7.944;2022-11-06T10:27:27;3.50;;;1.80;;
16246;SDS011;8231;50.866;7.944;2022-11-06T10:30:05;5.97;;;2.63;;
16246;SDS011;8231;50.866;7.944;2022-11-06T10:32:46;5.03;;;2.10;;
16246;SDS011;8231;50.866;7.944;2022-11-06T10:35:32;9.88;;;4.45;;
16246;SDS011;8231;50.866;7.944;2022-11-06T10:38:05;12.63;;;7.75;;
16246;SDS011;8231;50.866;7.944;2022-11-06T10:40:39;6.47;;;3.35;;
16246;SDS011;8231;50.866;7.944;2022-11-06T10:43:13;4.72;;;1.50;;
16246;SDS011;8231;50.866;7.944;2022-11-06T10:45:55;5.05;;;2.33;;
16246;SDS011;8231;50.866;7.944;2022-11-06T10:48:30;6.75;;;3.08;;
16246;SDS011;8231;50.866;7.944;2022-11-06T10:51:10;4.30;;;2.30;;
16246;SDS011;8231;50.866;7.944;2022-11-06T10:53:51;5.43;;;2.13;;
16246;SDS011;8231;50.866;7.944;2022-11-06T10:59:22;5.38;;;2.15;;
16246;SDS011;8231;50.866;7.944;2022-11-06T11:01:51;7.40;;;2.65;;
16246;SDS011;8231;50.866;7.944;2022-11-06T11:04:20;5.60;;;1.95;;
16246;SDS011;8231;50.866;7.944;2022-11-06T11:06:48;2.20;;;1.33;;
16246;SDS011;8231;50.866;7.944;2022-11-06T11:09:28;3.65;;;1.80;;
16246;SDS011;8231;50.866;7.944;2022-11-06T11:11:58;3.67;;;1.83;;
16246;SDS011;8231;50.866;7.944;2022-11-06T11:14:27;5.85;;;2.83;;
16246;SDS011;8231;50.866;7.944;2022-11-06T11:16:57;6.45;;;1.58;;
16246;SDS011;8231;50.866;7.944;2022-11-06T11:19:36;4.35;;;1.42;;
16246;SDS011;8231;50.866;7.944;2022-11-06T11:22:16;4.68;;;1.67;;
16246;SDS011;8231;50.866;7.944;2022-11-06T11:24:58;8.18;;;2.10;;
16246;SDS011;8231;50.866;7.944;2022-11-06T11:27:29;3.10;;;2.08;;
16246;SDS011;8231;50.866;7.944;2022-11-06T11:30:01;5.18;;;2.50;;
16246;SDS011;8231;50.866;7.944;2022-11-06T11:32:30;3.88;;;2.05;;
16246;SDS011;8231;50.866;7.944;2022-11-06T11:34:59;5.50;;;2.00;;
16246;SDS011;8231;50.866;7.944;2022-11-06T11:37:37;5.45;;;1.70;;
16246;SDS011;8231;50.866;7.944;2022-11-06T11:40:20;5.13;;;2.42;;
16246;SDS011;8231;50.866;7.944;2022-11-06T11:43:14;4.55;;;1.77;;
16246;SDS011;8231;50.866;7.944;2022-11-06T11:46:00;4.40;;;1.77;;
16246;SDS011;8231;50.866;7.944;2022-11-06T11:48:42;4.47;;;2.17;;
16246;SDS011;8231;50.866;7.944;2022-11-06T11:54:02;3.33;;;1.60;;
16246;SDS011;8231;50.866;7.944;2022-11-06T11:56:43;4.20;;;2.10;;
16246;SDS011;8231;50.866;7.944;2022-11-06T11:59:33;6.72;;;4.43;;
16246;SDS011;8231;50.866;7.944;2022-11-06T12:02:13;3.00;;;1.50;;
16246;SDS011;8231;50.866;7.944;2022-11-06T12:04:53;4.13;;;2.05;;
16246;SDS011;8231;50.866;7.944;2022-11-06T12:07:26;2.42;;;1.77;;
16246;SDS011;8231;50.866;7.944;2022-11-06T12:09:55;4.57;;;1.60;;
16246;SDS011;8231;50.866;7.944;2022-11-06T12:12:27;4.80;;;1.63;;
16246;SDS011;8231;50.866;7.944;2022-11-06T12:15:03;2.72;;;1.75;;
16246;SDS011;8231;50.866;7.944;2022-11-06T12:17:41;5.35;;;1.98;;
16246;SDS011;8231;50.866;7.944;2022-11-06T12:20:14;5.10;;;2.83;;
16246;SDS011;8231;50.866;7.944;2022-11-06T12:22:45;3.00;;;2.08;;
16246;SDS011;8231;50.866;7.944;2022-11-06T12:25:18;3.40;;;1.13;;
16246;SDS011;8231;50.866;7.944;2022-11-06T12:27:51;2.85;;;1.73;;
16246;SDS011;8231;50.866;7.944;2022-11-06T12:30:23;2.08;;;1.55;;
16246;SDS011;8231;50.866;7.944;2022-11-06T12:32:53;1.67;;;1.58;;
16246;SDS011;8231;50.866;7.944;2022-11-06T12:35:28;4.03;;;1.58;;
16246;SDS011;8231;50.866;7.944;2022-11-06T12:38:01;3.65;;;1.80;;
16246;SDS011;8231;50.866;7.944;2022-11-06T12:40:38;4.95;;;2.10;;
16246;SDS011;8231;50.866;7.944;2022-11-06T12:43:11;2.78;;;1.55;;
16246;SDS011;8231;50.866;7.944;2022-11-06T12:49:05;4.05;;;2.42;;
16246;SDS011;8231;50.866;7.944;2022-11-06T12:52:05;4.22;;;2.95;;
16246;SDS011;8231;50.866;7.944;2022-11-06T12:54:49;3.10;;;1.90;;
16246;SDS011;8231;50.866;7.944;2022-11-06T12:57:31;2.22;;;1.70;;
16246;SDS011;8231;50.866;7.944;2022-11-06T13:00:09;3.17;;;2.05;;
16246;SDS011;8231;50.866;7.944;2022-11-06T13:02:44;2.85;;;1.98;;
16246;SDS011;8231;50.866;7.944;2022-11-06T13:05:37;3.13;;;2.22;;
16246;SDS011;8231;50.866;7.944;2022-11-06T13:08:14;5.07;;;3.05;;
16246;SDS011;8231;50.866;7.944;2022-11-06T13:10:56;5.95;;;3.22;;
16246;SDS011;8231;50.866;7.944;2022-11-06T13:13:35;4.75;;;2.97;;
16246;SDS011;8231;50.866;7.944;2022-11-06T13:16:14;3.33;;;2.78;;
16246;SDS011;8231;50.866;7.944;2022-11-06T13:18:52;5.10;;;2.80;;
16246;SDS011;8231;50.866;7.944;2022-11-06T13:21:27;3.55;;;2.58;;
16246;SDS011;8231;50.866;7.944;2022-11-06T13:24:05;5.05;;;2.55;;
16246;SDS011;8231;50.866;7.944;2022-11-06T13:26:39;4.22;;;1.88;;
16246;SDS011;8231;50.866;7.944;2022-11-06T13:29:12;3.05;;;1.83;;
16246;SDS011;8231;50.866;7.944;2022-11-06T13:31:46;1.67;;;1.52;;
16246;SDS011;8231;50.866;7.944;2022-11-06T13:34:20;1.75;;;1.55;;
16246;SDS011;8231;50.866;7.944;2022-11-06T13:36:50;3.10;;;2.05;;
16246;SDS011;8231;50.866;7.944;2022-11-06T13:39:21;2.60;;;1.88;;
16246;SDS011;8231;50.866;7.944;2022-11-06T13:41:55;2.17;;;1.83;;
16246;SDS011;8231;50.866;7.944;2022-11-06T13:44:24;12.73;;;3.60;;
16246;SDS011;8231;50.866;7.944;2022-11-06T13:46:55;4.18;;;3.20;;
16246;SDS011;8231;50.866;7.944;2022-11-06T13:49:31;9.52;;;2.78;;
16246;SDS011;8231;50.866;7.944;2022-11-06T13:52:08;2.70;;;2.50;;
16246;SDS011;8231;50.866;7.944;2022-11-06T13:54:52;3.13;;;1.88;;
16246;SDS011;8231;50.866;7.944;2022-11-06T14:00:19;3.38;;;2.10;;
16246;SDS011;8231;50.866;7.944;2022-11-06T14:03:06;1.77;;;1.65;;
16246;SDS011;8231;50.866;7.944;2022-11-06T14:05:54;4.53;;;2.08;;
16246;SDS011;8231;50.866;7.944;2022-11-06T14:08:27;2.08;;;1.80;;
16246;SDS011;8231;50.866;7.944;2022-11-06T14:11:00;1.90;;;1.35;;
16246;SDS011;8231;50.866;7.944;2022-11-06T14:13:32;2.00;;;1.80;;
16246;SDS011;8231;50.866;7.944;2022-11-06T14:16:06;1.63;;;1.52;;
16246;SDS011;8231;50.866;7.944;2022-11-06T14:19:03;2.53;;;1.58;;
16246;SDS011;8231;50.866;7.944;2022-11-06T14:27:11;2.63;;;1.65;;
16246;SDS011;8231;50.866;7.944;2022-11-06T14:30:00;1.98;;;1.63;;
16246;SDS011;8231;50.866;7.944;2022-11-06T14:32:34;2.72;;;1.90;;
16246;SDS011;8231;50.866;7.944;2022-11-06T14:38:15;1.63;;;1.52;;
16246;SDS011;8231;50.866;7.944;2022-11-06T14:40:56;1.80;;;1.63;;
16246;SDS011;8231;50.866;7.944;2022-11-06T14:43:25;3.28;;;1.80;;
16246;SDS011;8231;50.866;7.944;2022-11-06T14:45:56;2.35;;;2.00;;
16246;SDS011;8231;50.866;7.944;2022-11-06T14:48:28;3.67;;;2.08;;
16246;SDS011;8231;50.866;7.944;2022-11-06T14:51:01;2.47;;;2.28;;
16246;SDS011;8231;50.866;7.944;2022-11-06T14:53:32;2.90;;;2.03;;
16246;SDS011;8231;50.866;7.944;2022-11-06T14:56:05;1.75;;;1.65;;
16246;SDS011;8231;50.866;7.944;2022-11-06T14:58:36;4.60;;;1.70;;
16246;SDS011;8231;50.866;7.944;2022-11-06T15:01:11;2.00;;;1.60;;
16246;SDS011;8231;50.866;7.944;2022-11-06T15:03:43;5.10;;;1.88;;
16246;SDS011;8231;50.866;7.944;2022-11-06T15:06:20;4.40;;;2.30;;
16246;SDS011;8231;50.866;7.944;2022-11-06T15:09:12;5.25;;;2.50;;
16246;SDS011;8231;50.866;7.944;2022-11-06T15:11:57;2.65;;;1.70;;
16246;SDS011;8231;50.866;7.944;2022-11-06T15:17:24;2.15;;;1.95;;
16246;SDS011;8231;50.866;7.944;2022-11-06T15:19:56;2.53;;;1.77;;
16246;SDS011;8231;50.866;7.944;2022-11-06T15:22:34;3.25;;;2.97;;
16246;SDS011;8231;50.866;7.944;2022-11-06T15:25:11;3.28;;;2.35;;
16246;SDS011;8231;50.866;7.944;2022-11-06T15:27:47;2.42;;;1.98;;
16246;SDS011;8231;50.866;7.944;2022-11-06T15:30:22;3.10;;;2.38;;
16246;SDS011;8231;50.866;7.944;2022-11-06T15:32:52;2.25;;;1.70;;
16246;SDS011;8231;50.866;7.944;2022-11-06T15:35:22;12.73;;;7.38;;
16246;SDS011;8231;50.866;7.944;2022-11-06T15:37:54;4.53;;;2.83;;
16246;SDS011;8231;50.866;7.944;2022-11-06T15:40:30;4.05;;;2.58;;
16246;SDS011;8231;50.866;7.944;2022-11-06T15:43:04;9.57;;;6.80;;
16246;SDS011;8231;50.866;7.944;2022-11-06T15:46:00;2.40;;;2.15;;
16246;SDS011;8231;50.866;7.944;2022-11-06T15:48:33;2.38;;;2.03;;
16246;SDS011;8231;50.866;7.944;2022-11-06T15:51:01;4.90;;;2.72;;
16246;SDS011;8231;50.866;7.944;2022-11-06T15:53:32;2.80;;;1.85;;
16246;SDS011;8231;50.866;7.944;2022-11-06T15:56:06;3.40;;;2.50;;
16246;SDS011;8231;50.866;7.944;2022-11-06T15:58:36;12.65;;;6.97;;
16246;SDS011;8231;50.866;7.944;2022-11-06T16:01:05;18.63;;;10.93;;